Latest Weather Observations for Kurnell

IDN60901

Issued at 8:11 pm EST Wednesday 6 May 2026 (issued every 10 minutes, with the page automatically refreshed every 10 minutes)

About weather observations | Map of Sydney area stations | Latest observations for Sydney area | Other Formats
Station Details ID: 066043 Name: KURNELL AWS Lat: -34.00 Lon: 151.21 Height: 4.0 m
Data from the previous 72 hours. | See also: Recent months at Kurnell
Date/Time
EST
Temp
°C
App
Temp
°C
Dew
Point
°C
Rel
Hum
%
Delta-T
°C
Wind Press
QNH
hPa
Press
MSL
hPa
Rain since
9am
mm
Dir  Spd
km/h
Gust
km/h
Spd
kts
Gust
kts
06/08:00pm - - - - - NNE 7 9 4 5 - - -
06/07:30pm - - - - - NE 7 9 4 5 - - -
06/07:00pm - - - - - E 7 9 4 5 - - -
06/06:30pm - - - - - ENE 11 15 6 8 - - -
06/06:00pm - - - - - E 11 15 6 8 - - -
06/05:30pm - - - - - E 13 15 7 8 - - -
06/05:00pm - - - - - E 13 15 7 8 - - -
06/04:30pm - - - - - ESE 11 13 6 7 - - -
06/04:00pm - - - - - ESE 11 15 6 8 - - -
06/03:30pm - - - - - ESE 11 15 6 8 - - -
06/03:00pm - - - - - ESE 13 15 7 8 - - -
06/02:30pm - - - - - SE 13 17 7 9 - - -
06/02:00pm - - - - - S 7 13 4 7 - - -
06/01:30pm - - - - - S 11 15 6 8 - - -
06/01:00pm - - - - - S 11 15 6 8 - - -
06/12:30pm - - - - - SSW 15 20 8 11 - - -
06/12:00pm - - - - - SW 19 28 10 15 - - -
06/11:30am - - - - - NW 9 11 5 6 - - -
06/11:00am - - - - - NNW 7 9 4 5 - - -
06/10:30am - - - - - NNW 9 11 5 6 - - -
06/10:00am - - - - - NNW 9 11 5 6 - - -
06/09:30am - - - - - NW 11 13 6 7 - - -
06/09:00am - - - - - NW 9 13 5 7 - - -
06/08:30am - - - - - NW 13 17 7 9 - - -
06/08:00am - - - - - NW 15 17 8 9 - - -
06/07:30am - - - - - NW 13 15 7 8 - - -
06/07:00am - - - - - NNW 15 19 8 10 - - -
06/06:30am - - - - - NNW 13 15 7 8 - - -
06/06:00am - - - - - NNW 13 15 7 8 - - -
06/05:30am - - - - - NW 13 15 7 8 - - -
06/05:00am - - - - - NNW 15 17 8 9 - - -
06/04:30am - - - - - NNW 15 17 8 9 - - -
06/04:00am - - - - - NNW 11 15 6 8 - - -
06/03:30am - - - - - NW 9 11 5 6 - - -
06/03:00am - - - - - NNW 11 13 6 7 - - -
06/02:30am - - - - - NNW 11 15 6 8 - - -
06/02:00am - - - - - N 13 17 7 9 - - -
06/01:30am - - - - - NW 13 15 7 8 - - -
06/01:00am - - - - - WNW 13 15 7 8 - - -
06/12:30am - - - - - WNW 7 9 4 5 - - -
06/12:00am - - - - - WSW 9 11 5 6 - - -
 
Date/Time
EST
Temp
°C
App
Temp
°C
Dew
Point
°C
Rel
Hum
%
Delta-T
°C
Wind Press
QNH
hPa
Press
MSL
hPa
Rain since
9am
mm
Dir  Spd
km/h
Gust
km/h
Spd
kts
Gust
kts
05/11:30pm - - - - - WSW 9 9 5 5 - - -
05/11:00pm - - - - - SW 11 13 6 7 - - -
05/10:30pm - - - - - SW 9 13 5 7 - - -
05/10:00pm - - - - - WSW 7 11 4 6 - - -
05/09:30pm - - - - - W 6 7 3 4 - - -
05/09:00pm - - - - - WSW 6 9 3 5 - - -
05/08:30pm - - - - - W 2 7 1 4 - - -
05/08:00pm - - - - - S 7 9 4 5 - - -
05/07:30pm - - - - - SSE 7 9 4 5 - - -
05/07:00pm - - - - - S 4 9 2 5 - - -
05/06:30pm - - - - - S 6 7 3 4 - - -
05/06:00pm - - - - - S 4 7 2 4 - - -
05/05:30pm - - - - - S 7 11 4 6 - - -
05/05:00pm - - - - - S 13 17 7 9 - - -
05/04:30pm - - - - - S 13 17 7 9 - - -
05/04:00pm - - - - - SSE 17 20 9 11 - - -
05/03:30pm - - - - - S 13 19 7 10 - - -
05/03:00pm - - - - - S 13 15 7 8 - - -
05/02:30pm - - - - - WSW 7 15 4 8 - - -
05/02:00pm - - - - - WNW 11 15 6 8 - - -
05/01:30pm - - - - - WNW 13 24 7 13 - - -
05/01:00pm - - - - - WNW 17 26 9 14 - - -
05/12:30pm - - - - - WNW 24 30 13 16 - - -
05/12:00pm - - - - - WNW 28 33 15 18 - - -
05/11:30am - - - - - WNW 33 39 18 21 - - -
05/11:00am - - - - - WNW 28 37 15 20 - - -
05/10:30am - - - - - WNW 26 33 14 18 - - -
05/10:00am - - - - - WNW 24 32 13 17 - - -
05/09:30am - - - - - WNW 26 35 14 19 - - -
05/09:00am - - - - - WNW 28 33 15 18 - - -
05/08:30am - - - - - NW 20 28 11 15 - - -
05/08:00am - - - - - NW 28 32 15 17 - - -
05/07:30am - - - - - WNW 19 22 10 12 - - -
05/07:00am - - - - - NW 19 24 10 13 - - -
05/06:30am - - - - - WNW 24 30 13 16 - - -
05/06:00am - - - - - WNW 19 24 10 13 - - -
05/05:30am - - - - - W 24 32 13 17 - - -
05/05:00am - - - - - W 26 32 14 17 - - -
05/04:30am - - - - - W 24 32 13 17 - - -
05/04:00am - - - - - W 26 33 14 18 - - -
05/03:30am - - - - - W 22 28 12 15 - - -
05/03:00am - - - - - SW 9 13 5 7 - - -
05/02:30am - - - - - WSW 9 13 5 7 - - -
05/02:00am - - - - - WSW 9 13 5 7 - - -
05/01:30am - - - - - WSW 13 17 7 9 - - -
05/01:00am - - - - - SW 11 13 6 7 - - -
05/12:30am - - - - - WSW 11 15 6 8 - - -
05/12:00am - - - - - W 17 22 9 12 - - -
 
Date/Time
EST
Temp
°C
App
Temp
°C
Dew
Point
°C
Rel
Hum
%
Delta-T
°C
Wind Press
QNH
hPa
Press
MSL
hPa
Rain since
9am
mm
Dir  Spd
km/h
Gust
km/h
Spd
kts
Gust
kts
04/11:30pm - - - - - W 15 17 8 9 - - -
04/11:00pm - - - - - WNW 20 24 11 13 - - -
04/10:30pm - - - - - NW 19 20 10 11 - - -
04/10:00pm - - - - - N 9 11 5 6 - - -
04/09:30pm - - - - - NNE 19 26 10 14 - - -
04/09:00pm - - - - - NNE 20 26 11 14 - - -
04/08:30pm - - - - - NNE 26 35 14 19 - - -
04/08:00pm - - - - - NNE 30 37 16 20 - - -
04/07:30pm - - - - - NNE 30 39 16 21 - - -
04/07:00pm - - - - - NE 28 33 15 18 - - -
04/06:30pm - - - - - NE 17 20 9 11 - - -
04/06:00pm - - - - - NE 17 22 9 12 - - -
04/05:30pm - - - - - NE 19 20 10 11 - - -
04/05:00pm - - - - - NE 20 28 11 15 - - -
04/04:30pm - - - - - NNE 26 32 14 17 - - -
04/04:00pm - - - - - NNE 24 28 13 15 - - -
04/03:30pm - - - - - NNE 28 33 15 18 - - -
04/03:00pm - - - - - NNE 26 32 14 17 - - -
04/02:30pm - - - - - NE 22 26 12 14 - - -
04/02:00pm - - - - - NE 17 20 9 11 - - -
04/01:30pm - - - - - NNE 13 17 7 9 - - -
04/01:00pm - - - - - N 20 28 11 15 - - -
04/12:30pm - - - - - N 17 24 9 13 - - -
04/12:00pm - - - - - NNW 13 15 7 8 - - -
04/11:30am - - - - - NW 13 17 7 9 - - -
04/11:00am - - - - - NW 11 13 6 7 - - -
04/10:30am - - - - - CALM 0 0 0 0 - - -
04/10:00am - - - - - NNW 11 15 6 8 - - -
04/09:30am - - - - - NW 28 32 15 17 - - -
04/09:00am - - - - - NNW 13 19 7 10 - - -
04/08:30am - - - - - NNW 7 11 4 6 - - -
04/08:00am - - - - - NNW 15 19 8 10 - - -
04/07:30am - - - - - NNW 13 15 7 8 - - -
04/07:00am - - - - - NNW 13 15 7 8 - - -
04/06:30am - - - - - N 11 13 6 7 - - -
04/06:00am - - - - - NE 13 13 7 7 - - -
04/05:30am - - - - - NE 13 15 7 8 - - -
04/05:00am - - - - - NE 13 13 7 7 - - -
04/04:30am - - - - - NE 11 13 6 7 - - -
04/04:00am - - - - - NE 11 11 6 6 - - -
04/03:30am - - - - - NE 15 17 8 9 - - -
04/03:00am - - - - - NE 11 13 6 7 - - -
04/02:30am - - - - - NNE 11 15 6 8 - - -
04/02:00am - - - - - NE 15 22 8 12 - - -
04/01:30am - - - - - N 11 19 6 10 - - -
04/01:00am - - - - - NE 13 17 7 9 - - -
04/12:30am - - - - - N 15 19 8 10 - - -
04/12:00am - - - - - N 13 15 7 8 - - -
 
Date/Time
EST
Temp
°C
App
Temp
°C
Dew
Point
°C
Rel
Hum
%
Delta-T
°C
Wind Press
QNH
hPa
Press
MSL
hPa
Rain since
9am
mm
Dir  Spd
km/h
Gust
km/h
Spd
kts
Gust
kts
03/11:30pm - - - - - NNE 22 30 12 16 - - -
03/11:00pm - - - - - NNE 24 33 13 18 - - -
03/10:30pm - - - - - NE 28 35 15 19 - - -
03/10:00pm - - - - - NE 33 41 18 22 - - -
03/09:30pm - - - - - NE 32 39 17 21 - - -
03/09:00pm - - - - - NE 39 50 21 27 - - -
03/08:30pm - - - - - NE 33 46 18 25 - - -

Latest Capital City Observations: Canberra | Sydney | Melbourne | Brisbane | Adelaide | Perth | Hobart | Darwin

Other formats

Comma delimited format used in spreadsheet applications
http://www.bom.gov.au/fwo/IDN60901/IDN60901.95756.axf

JavaScript Object Notation format (JSON) in row-major order
http://www.bom.gov.au/fwo/IDN60901/IDN60901.95756.json

Data quality

Most of these data are generated automatically and are frequently updated. Quality checks on data are not normally performed. It is possible for incorrect values to appear. Refer to information at About Latest Weather Observations and please check the disclaimer before using these data.